nws-alerts: Checking more than four warning/county codes can delay the loading of your pages. You should use a cron job to get the data.

Nearby METAR Weather Reports

 

KETB - West Bend, WI
Distance from station: E 4mi, 6km
Updated: 01/24/2020 6:15am
Light snow, Overcast
Light snow, Overcast
 Wind from ENE
Wind: ENE 9 mph , 15 km/h
Temperature: 32°F , 0°C
Wind Chill: 24°F , -4°C
Dew Point: 32°F , 0°C
Humidity: 100%
Barometer: 29.94 inHg , 1013.9 hPa
Summary: Light Snow
Clouds: Overcast
Visibility: 2 miles , 3 km
Cloud details: Overcast 400 ft
2020/01/24 12:15 KETB 241215Z AUTO 06008KT 2SM -SN OVC004 00/00 A2994 RMK AO2
KFLD - Fond Du Lac, WI
Distance from station: W 34mi, 54km
Updated: 01/24/2020 6:17am
Light snow, Mist, Overcast
Light snow, Mist, Overcast
 Wind from NE
Wind: NE 7 mph , 11 km/h
Temperature: 34°F , 1°C
Wind Chill: 28°F , -2°C
Dew Point: 32°F , 0°C
Humidity: 93%
Barometer: 29.95 inHg , 1014.2 hPa
Summary: Light snow, Mist
Clouds: Overcast
Visibility: 1 3/4 miles , 2.8 km
Cloud details: Overcast 600 ft
2020/01/24 12:17 KFLD 241217Z AUTO 04006KT 1 3/4SM -SN BR OVC006 01/00 A2995 RMK AO2 CIG 005V009 P0001 T00110000
 
KSBM - Sheboygan, WI
Distance from station: NE 36mi, 57km
Updated: 01/24/2020 5:53am
Light snow, Mist, Overcast
Light snow, Mist, Overcast
 Wind from NE
Wind: NE 12 mph , 19 km/h
Temperature: 34°F , 1°C
Wind Chill: 25°F , -4°C
Dew Point: 30°F , -1°C
Humidity: 87%
Barometer: 29.96 inHg , 1014.6 hPa
Summary: Light snow, Mist
Clouds: Overcast
Visibility: 1 1/4 miles , 2 km
Cloud details: Overcast 300 ft
2020/01/24 11:53 KSBM 241153Z AUTO 05010KT 1 1/4SM -SN BR OVC003 01/M01 A2996 RMK AO2 SLP155 P0001 60008 70026 T00061006 10017 20006 56015
KMKE - Milwaukee, WI
Distance from station: S 44mi, 70km
Updated: 01/24/2020 5:52am
Light rain, Mist, Overcast
Light rain, Mist, Overcast
 Wind from E
Wind: E 12 mph , 19 km/h
Temperature: 36°F , 2°C
Wind Chill: 28°F , -2°C
Dew Point: 34°F , 1°C
Humidity: 93%
Barometer: 29.92 inHg , 1013.2 hPa
Summary: Light rain, Mist
Clouds: Overcast
Visibility: 1 1/2 miles , 2.4 km
Cloud details: Overcast 400 ft
2020/01/24 11:52 KMKE 241152Z 08010KT 1 1/2SM -RA BR OVC004 02/01 A2992 RMK AO2 SFC VIS 2 1/2 RAB1059E08B49DZB08E49SNE26 SLP140 4/005 P0002 60007 70022 T00220006 10022 20017 58005
 
KOSH - Oshkosh, WI
Distance from station: WNW 52mi, 83km
Updated: 01/24/2020 5:53am
Light snow, Mist, Overcast
Light snow, Mist, Overcast
 Wind from ENE
Wind: ENE 9 mph , 15 km/h
Temperature: 32°F , 0°C
Wind Chill: 24°F , -4°C
Dew Point: 32°F , 0°C
Humidity: 100%
Barometer: 29.96 inHg , 1014.6 hPa
Summary: Light snow, Mist
Clouds: Overcast
Visibility: 1 mile , 2 km
Cloud details: Overcast 200 ft
2020/01/24 11:53 KOSH 241153Z 06008KT 1SM R36/P6000FT -SN BR OVC002 00/00 A2996 RMK AO2 SLP160 P0002 60007 70011 T00000000 10006 20000 56012
KENW - Kenosha, WI
Distance from station: SSE 69mi, 111km
Updated: 01/24/2020 6:21am
Light rain, Mist, Overcast
Light rain, Mist, Overcast
 Wind from E
Wind: E 10 mph , 17 km/h
Temperature: 37°F , 3°C
Wind Chill: 30°F , -1°C
Dew Point: 34°F , 1°C
Humidity: 87%
Barometer: 29.90 inHg , 1012.5 hPa
Summary: Light rain, Mist
Clouds: Overcast
Visibility: 2 1/2 miles , 4 km
Cloud details: Overcast 300 ft
2020/01/24 12:21 KENW 241221Z AUTO 09009KT 2 1/2SM -RA BR OVC003 03/01 A2990 RMK AO2 UPB1158E1159 P0000 T00280011
 
KMSN - Madison, WI
Distance from station: SW 69mi, 111km
Updated: 01/24/2020 5:53am
Light snow, Mist, Overcast
Light snow, Mist, Overcast
 Wind from ENE
Wind: ENE 9 mph , 15 km/h
Temperature: 34°F , 1°C
Wind Chill: 27°F , -3°C
Dew Point: 30°F , -1°C
Humidity: 87%
Barometer: 29.91 inHg , 1012.9 hPa
Summary: Light snow, Mist
Clouds: Overcast
Visibility: 3 miles , 5 km
Cloud details: Overcast 600 ft
2020/01/24 11:53 KMSN 241153Z 07008KT 3SM -SN BR OVC006 01/M01 A2991 RMK AO2 SLP139 4/007 P0002 60009 70011 T00061006 10006 20000 56006
KSAW - Marquette, MI
Distance from station: N 262mi, 421km
Updated: 01/24/2020 5:47am
Light snow, Overcast
Light snow, Overcast
 Wind from E
Wind: E 6 mph , 9 km/h
Temperature: 30°F , -1°C
Wind Chill: 24°F , -4°C
Dew Point: 28°F , -2°C
Humidity: 93%
Barometer: 30.07 inHg , 1018.3 hPa
Summary: Light Snow
Clouds: Overcast
Visibility: 4 miles , 6 km
Cloud details: Overcast 700 ft
2020/01/24 11:47 KSAW 241147Z 08005KT 4SM -SN OVC007 M01/M02 A3007
 
KIMT - Iron Mountain, MI
Distance from station: NNW 201mi, 323km
Updated: 01/24/2020 5:54am
Light snow, Mist, Overcast
Light snow, Mist, Overcast
 Wind from ENE
Wind: ENE 6 mph , 9 km/h
Temperature: 32°F , 0°C
Wind Chill: 26°F , -3°C
Dew Point: 28°F , -2°C
Humidity: 87%
Barometer: 30.04 inHg , 1017.3 hPa
Summary: Light snow, Mist
Clouds: Overcast
Visibility: 4 miles , 6 km
Cloud details: Overcast 600 ft
2020/01/24 11:54 KIMT 241154Z AUTO 06005KT 4SM -SN BR OVC006 00/M02 A3004 RMK AO2 SLP186 P0000 60000 70001 T00001017 10000 21006 56004
KGRB - Green Bay, WI
Distance from station: NNW 87mi, 140km
Updated: 01/24/2020 5:53am
Light snow, Mist, Overcast
Light snow, Mist, Overcast
 Wind from NE
Wind: NE 9 mph , 15 km/h
Temperature: 34°F , 1°C
Wind Chill: 27°F , -3°C
Dew Point: 30°F , -1°C
Humidity: 87%
Barometer: 30.01 inHg , 1016.3 hPa
Summary: Light snow, Mist
Clouds: Overcast
Visibility: 1 mile , 2 km
Cloud details: Overcast 300 ft
2020/01/24 11:53 KGRB 241153Z 04008KT 1SM -SN BR OVC003 01/M01 A3001 RMK AO2 SLP170 P0002 60007 70014 T00061006 10011 20006 56011 RVRNO
 
KAUW - Wausau, WI
Distance from station: NW 155mi, 249km
Updated: 01/24/2020 6:14am
Light snow, Mist, Overcast
Light snow, Mist, Overcast
 Wind from ENE
Wind: ENE 7 mph , 11 km/h
Temperature: 30°F , -1°C
Wind Chill: 23°F , -5°C
Dew Point: 30°F , -1°C
Humidity: 100%
Barometer: 29.96 inHg , 1014.6 hPa
Summary: Light snow, Mist
Clouds: Overcast
Visibility: 3 miles , 5 km
Cloud details: Overcast 900 ft
2020/01/24 12:14 KAUW 241214Z AUTO 06006KT 3SM -SN BR OVC009 M01/M01 A2996 RMK AO2 SNB1156 CIG 007V011 P0000 T10061011
KORD - Chicago O'Hare, IL
Distance from station: S 113mi, 181km
Updated: 01/24/2020 5:51am
Light rain, Mist, Overcast
Light rain, Mist, Overcast
 Wind from ENE
Wind: ENE 8 mph , 13 km/h
Temperature: 36°F , 2°C
Wind Chill: 30°F , -1°C
Dew Point: 34°F , 1°C
Humidity: 93%
Barometer: 29.86 inHg , 1011.2 hPa
Summary: Light rain, Mist
Clouds: Overcast
Visibility: 2 1/2 miles , 4 km
Cloud details: Overcast 300 ft
2020/01/24 11:51 KORD 241151Z 07007KT 2 1/2SM -RA BR OVC003 02/01 A2986 RMK AO2 SLP119 4/001 P0002 60012 70027 T00170011 10017 20006 56011
 
KVOK - WIANG Volk Field, Camp Douglas, WI
Distance from station: WNW 120mi, 193km
Updated: 01/24/2020 6:06am
Light snow, Mist, Overcast
Light snow, Mist, Overcast
 Wind from NE
Wind: NE 6 mph , 9 km/h
Temperature: 32°F , 0°C
Wind Chill: 26°F , -3°C
Dew Point: 32°F , 0°C
Humidity: 100%
Barometer: 29.94 inHg , 1013.9 hPa
Summary: Light snow, Mist
Clouds: Overcast
Visibility: 2 1/2 miles , 4 km
Cloud details: Overcast 900 ft
2020/01/24 12:06 KVOK 241206Z AUTO 04005KT 2 1/2SM -SN BR OVC009 00/00 A2994 RMK AO2 CIG 006V009 SLP152 $
KLNR - Lone Rock, WI
Distance from station: W 114mi, 183km
Updated: 01/24/2020 6:22am
Light snow, Mist, Overcast
Light snow, Mist, Overcast
 Wind from NNE
Wind: NNE 7 mph , 11 km/h
Temperature: 32°F , 0°C
Wind Chill: 25°F , -4°C
Dew Point: 30°F , -1°C
Humidity: 93%
Barometer: 29.93 inHg , 1013.5 hPa
Summary: Light snow, Mist
Clouds: Overcast
Visibility: 1 1/4 miles , 2 km
Cloud details: Overcast 1500 ft
2020/01/24 12:22 KLNR 241222Z AUTO 03006KT 1 1/4SM -SN BR OVC015 00/M01 A2993 RMK AO2 P0001 T00001011